createdAt,value
2018-05-29T00:00:17.740Z,0.00
2018-05-29T00:01:17.768Z,0.00
2018-05-29T00:02:17.795Z,0.00
2018-05-29T00:03:17.814Z,0.00
2018-05-29T00:04:17.838Z,0.00
2018-05-29T00:05:17.862Z,0.00
2018-05-29T00:06:17.887Z,0.00
2018-05-29T00:07:17.911Z,0.00
2018-05-29T00:08:17.937Z,0.00
2018-05-29T00:09:17.959Z,0.00
2018-05-29T00:10:17.990Z,0.00
2018-05-29T00:11:18.006Z,0.00
2018-05-29T00:12:18.032Z,0.00
2018-05-29T00:13:18.055Z,0.00
2018-05-29T00:14:18.083Z,0.00
2018-05-29T00:15:18.108Z,0.00
2018-05-29T00:16:18.128Z,0.00
2018-05-29T00:17:18.152Z,0.00
2018-05-29T00:18:18.176Z,0.00
2018-05-29T00:19:18.199Z,0.00
2018-05-29T00:20:18.225Z,0.00
2018-05-29T00:21:18.248Z,0.00
2018-05-29T00:22:18.274Z,0.00
2018-05-29T00:23:18.296Z,0.00
2018-05-29T00:24:18.321Z,0.00
2018-05-29T00:25:18.343Z,0.00
2018-05-29T00:26:18.371Z,0.00
2018-05-29T00:27:18.393Z,0.00
2018-05-29T00:28:18.420Z,0.00
2018-05-29T00:29:18.447Z,0.00
2018-05-29T00:30:18.465Z,0.00
2018-05-29T00:31:18.491Z,0.00
2018-05-29T00:32:18.514Z,0.00
2018-05-29T00:33:18.536Z,0.00
2018-05-29T00:34:18.566Z,0.00
2018-05-29T00:35:18.584Z,0.00
2018-05-29T00:36:18.609Z,0.00
2018-05-29T00:37:18.635Z,0.00
2018-05-29T00:38:18.664Z,0.00
2018-05-29T00:39:18.682Z,0.00
2018-05-29T00:40:18.709Z,0.00
2018-05-29T00:41:18.731Z,0.00
2018-05-29T00:42:18.752Z,0.00
2018-05-29T00:43:18.776Z,0.00
2018-05-29T00:44:18.801Z,0.00
2018-05-29T00:45:18.828Z,0.00
2018-05-29T00:46:18.848Z,0.00
2018-05-29T00:47:18.876Z,0.00
2018-05-29T00:48:18.920Z,0.00
2018-05-29T00:49:18.921Z,0.00
2018-05-29T00:50:18.948Z,0.00
2018-05-29T00:51:18.969Z,0.00
2018-05-29T00:52:18.996Z,0.00
2018-05-29T00:53:19.019Z,0.00
2018-05-29T00:54:19.051Z,0.00
2018-05-29T00:55:19.064Z,0.00
2018-05-29T00:56:19.089Z,0.00
2018-05-29T00:57:19.117Z,0.00
2018-05-29T00:58:19.139Z,0.00
2018-05-29T00:59:19.162Z,0.00
2018-05-29T01:00:19.190Z,0.00
2018-05-29T01:01:19.213Z,0.00
2018-05-29T01:02:19.231Z,0.00
2018-05-29T01:03:19.258Z,0.00
2018-05-29T01:04:19.284Z,0.00
2018-05-29T01:05:19.307Z,0.00
2018-05-29T01:06:19.332Z,0.00
2018-05-29T01:07:19.355Z,0.00
2018-05-29T01:08:19.380Z,0.00
2018-05-29T01:09:19.402Z,0.00
2018-05-29T01:10:19.427Z,0.00
2018-05-29T01:11:19.452Z,0.00
2018-05-29T01:12:19.473Z,0.00
2018-05-29T01:13:19.500Z,0.00
2018-05-29T01:14:19.522Z,0.00
2018-05-29T01:15:19.546Z,0.00
2018-05-29T01:16:19.584Z,0.00
2018-05-29T01:17:19.595Z,0.00
2018-05-29T01:18:19.622Z,0.00
2018-05-29T01:19:19.647Z,0.00
2018-05-29T01:20:19.666Z,0.00
2018-05-29T01:21:19.691Z,0.00
2018-05-29T01:22:19.714Z,0.00
2018-05-29T01:23:19.738Z,0.00
2018-05-29T01:24:19.762Z,0.00
2018-05-29T01:25:19.786Z,0.00
2018-05-29T01:26:19.812Z,0.00
2018-05-29T01:27:19.836Z,0.00
2018-05-29T01:28:19.859Z,0.00
2018-05-29T01:29:19.884Z,0.00
2018-05-29T01:30:19.907Z,0.00
2018-05-29T01:31:19.932Z,0.00
2018-05-29T01:32:19.958Z,0.00
2018-05-29T01:33:19.982Z,0.00
2018-05-29T01:34:20.002Z,0.00
2018-05-29T01:35:20.029Z,0.00
2018-05-29T01:36:20.052Z,0.00
2018-05-29T01:37:20.074Z,0.00
2018-05-29T01:38:20.100Z,0.00
2018-05-29T01:39:20.123Z,0.00
2018-05-29T01:40:20.147Z,0.00
2018-05-29T01:41:20.173Z,0.00
2018-05-29T01:42:20.194Z,0.00
2018-05-29T01:43:20.219Z,0.00
2018-05-29T01:44:20.244Z,0.00
2018-05-29T01:45:20.269Z,0.00
2018-05-29T01:46:20.290Z,0.00
2018-05-29T01:47:20.315Z,0.00
2018-05-29T01:48:20.340Z,0.00
2018-05-29T01:49:20.365Z,0.00
2018-05-29T01:50:20.386Z,0.00
2018-05-29T01:51:20.411Z,0.00
2018-05-29T01:52:20.436Z,0.00
2018-05-29T01:53:20.459Z,0.00
2018-05-29T01:54:20.481Z,0.00
2018-05-29T01:55:20.507Z,0.00
2018-05-29T01:56:20.531Z,0.00
2018-05-29T01:57:20.558Z,0.00
2018-05-29T01:58:20.582Z,0.00
2018-05-29T01:59:20.602Z,0.00
2018-05-29T02:00:20.627Z,0.00
2018-05-29T02:01:20.653Z,0.00
2018-05-29T02:02:20.674Z,0.00
2018-05-29T02:03:20.697Z,0.00
2018-05-29T02:04:20.808Z,0.00
2018-05-29T02:05:20.747Z,0.00
2018-05-29T02:06:20.769Z,0.00
2018-05-29T02:07:20.798Z,0.00
2018-05-29T02:08:20.824Z,0.00
2018-05-29T02:09:20.852Z,0.00
2018-05-29T02:10:20.867Z,0.00
2018-05-29T02:11:20.898Z,0.00
2018-05-29T02:12:20.916Z,0.00
2018-05-29T02:13:20.941Z,0.00
2018-05-29T02:14:20.965Z,0.00
2018-05-29T02:15:20.986Z,0.00
2018-05-29T02:16:21.009Z,0.00
2018-05-29T02:17:21.041Z,0.00
2018-05-29T02:18:21.057Z,0.00
2018-05-29T02:19:21.082Z,0.00
2018-05-29T02:20:21.108Z,0.00
2018-05-29T02:21:21.132Z,0.00
2018-05-29T02:22:21.153Z,0.00
2018-05-29T02:23:21.182Z,0.00
2018-05-29T02:24:21.214Z,0.00
2018-05-29T02:25:21.226Z,0.00
2018-05-29T02:26:21.251Z,0.00
2018-05-29T02:27:21.272Z,0.00
2018-05-29T02:28:21.300Z,4.00
2018-05-29T02:29:21.323Z,4.00
2018-05-29T02:30:21.343Z,0.00
2018-05-29T02:31:21.370Z,0.00
2018-05-29T02:32:21.396Z,0.00
2018-05-29T02:33:21.425Z,4.00
2018-05-29T02:34:21.440Z,4.00
2018-05-29T02:35:21.465Z,0.00
2018-05-29T02:36:21.491Z,4.00
2018-05-29T02:37:21.514Z,4.00
2018-05-29T02:38:21.536Z,4.00
2018-05-29T02:39:21.560Z,4.00
2018-05-29T02:40:21.586Z,8.00
2018-05-29T02:41:21.608Z,8.00
2018-05-29T02:42:21.643Z,8.00
2018-05-29T02:43:21.661Z,8.00
2018-05-29T02:44:21.680Z,8.00
2018-05-29T02:45:21.708Z,12.00
2018-05-29T02:46:21.728Z,12.00
2018-05-29T02:47:21.752Z,12.00
2018-05-29T02:48:21.780Z,16.00
2018-05-29T02:49:21.801Z,16.00
2018-05-29T02:50:21.829Z,16.00
2018-05-29T02:51:21.847Z,20.00
2018-05-29T02:52:21.871Z,24.00
2018-05-29T02:53:21.895Z,24.00
2018-05-29T02:54:21.919Z,28.00
2018-05-29T02:55:21.943Z,32.00
2018-05-29T02:56:21.967Z,32.00
2018-05-29T02:57:21.990Z,36.00
2018-05-29T02:58:22.022Z,40.00
2018-05-29T02:59:22.038Z,44.00
2018-05-29T03:00:22.063Z,48.00
2018-05-29T03:01:22.089Z,48.00
2018-05-29T03:02:22.110Z,52.00
2018-05-29T03:03:22.135Z,56.00
2018-05-29T03:04:22.158Z,60.00
2018-05-29T03:05:22.187Z,64.00
2018-05-29T03:06:22.207Z,68.00
2018-05-29T03:07:22.230Z,76.00
2018-05-29T03:08:22.252Z,80.00
2018-05-29T03:09:22.278Z,84.00
2018-05-29T03:10:22.305Z,92.00
2018-05-29T03:11:22.324Z,96.00
2018-05-29T03:12:22.349Z,108.00
2018-05-29T03:13:22.382Z,112.00
2018-05-29T03:14:22.398Z,124.00
2018-05-29T03:15:22.419Z,128.00
2018-05-29T03:16:22.446Z,140.00
2018-05-29T03:17:22.473Z,148.00
2018-05-29T03:18:22.491Z,156.00
2018-05-29T03:19:22.516Z,168.00
2018-05-29T03:20:22.541Z,176.00
2018-05-29T03:21:22.565Z,184.00
2018-05-29T03:22:22.590Z,192.00
2018-05-29T03:23:22.617Z,200.00
2018-05-29T03:24:22.634Z,208.00
2018-05-29T03:25:22.661Z,220.00
2018-05-29T03:26:22.685Z,232.00
2018-05-29T03:27:22.711Z,244.00
2018-05-29T03:28:22.731Z,256.00
2018-05-29T03:29:22.755Z,272.00
2018-05-29T03:30:22.777Z,292.00
2018-05-29T03:31:22.804Z,308.00
2018-05-29T03:32:22.826Z,324.00
2018-05-29T03:33:22.850Z,344.00
2018-05-29T03:34:22.888Z,368.00
2018-05-29T03:35:22.897Z,392.00
2018-05-29T03:36:22.925Z,412.00
2018-05-29T03:37:22.948Z,432.00
2018-05-29T03:38:22.969Z,452.00
2018-05-29T03:39:22.994Z,468.00
2018-05-29T03:40:23.017Z,492.00
2018-05-29T03:41:23.045Z,508.00
2018-05-29T03:42:23.065Z,532.00
2018-05-29T03:43:23.092Z,548.00
2018-05-29T03:44:23.112Z,564.00
2018-05-29T03:45:23.136Z,584.00
2018-05-29T03:46:23.160Z,600.00
2018-05-29T03:47:23.184Z,620.00
2018-05-29T03:48:23.210Z,640.00
2018-05-29T03:49:23.232Z,672.00
2018-05-29T03:50:23.255Z,700.00
2018-05-29T03:51:23.321Z,732.00
2018-05-29T03:52:23.305Z,780.00
2018-05-29T03:53:23.327Z,828.00
2018-05-29T03:54:23.352Z,892.00
2018-05-29T03:55:23.375Z,948.00
2018-05-29T03:56:23.399Z,992.00
2018-05-29T03:57:23.423Z,1048.00
2018-05-29T03:58:23.447Z,1108.00
2018-05-29T03:59:23.471Z,1160.00
2018-05-29T04:00:23.495Z,1220.00
2018-05-29T04:01:23.522Z,1296.00
2018-05-29T04:02:23.543Z,1380.00
2018-05-29T04:03:23.568Z,1424.00
2018-05-29T04:04:23.591Z,1492.00
2018-05-29T04:05:23.617Z,1576.00
2018-05-29T04:06:23.638Z,1696.00
2018-05-29T04:07:23.667Z,1796.00
2018-05-29T04:08:23.689Z,1836.00
2018-05-29T04:09:23.751Z,1864.00
2018-05-29T04:10:23.737Z,1908.00
2018-05-29T04:11:23.760Z,1944.00
2018-05-29T04:12:23.786Z,2064.00
2018-05-29T04:13:23.811Z,2184.00
2018-05-29T04:14:23.833Z,2276.00
2018-05-29T04:15:23.859Z,2328.00
2018-05-29T04:16:23.883Z,2432.00
2018-05-29T04:17:23.907Z,2592.00
2018-05-29T04:18:23.982Z,2704.00
2018-05-29T04:19:23.957Z,2816.00
2018-05-29T04:20:23.981Z,2944.00
2018-05-29T04:21:24.007Z,2988.00
2018-05-29T04:22:24.032Z,3012.00
2018-05-29T04:23:24.058Z,2900.00
2018-05-29T04:24:24.083Z,3040.00
2018-05-29T04:25:24.110Z,3248.00
2018-05-29T04:26:24.132Z,3524.00
2018-05-29T04:27:24.158Z,3612.00
2018-05-29T04:28:24.185Z,3976.00
2018-05-29T04:29:24.209Z,4264.00
2018-05-29T04:30:24.234Z,4492.00
2018-05-29T04:31:24.258Z,4696.00
2018-05-29T04:32:24.290Z,4860.00
2018-05-29T04:33:24.310Z,5052.00
2018-05-29T04:34:24.336Z,5128.00
2018-05-29T04:35:24.363Z,5356.00
2018-05-29T04:36:24.387Z,5672.00
2018-05-29T04:37:24.416Z,6152.00
2018-05-29T04:38:24.439Z,6648.00
2018-05-29T04:39:24.466Z,7056.00
2018-05-29T04:40:24.494Z,7240.00
2018-05-29T04:41:24.522Z,7192.00
2018-05-29T04:42:24.545Z,7252.00
2018-05-29T04:43:24.570Z,7428.00
2018-05-29T04:44:24.596Z,7548.00
2018-05-29T04:45:24.623Z,7572.00
2018-05-29T04:46:24.651Z,7472.00
2018-05-29T04:47:24.678Z,7548.00
2018-05-29T04:48:24.701Z,7528.00
2018-05-29T04:49:24.730Z,7068.00
2018-05-29T04:50:24.765Z,6968.00
2018-05-29T04:51:24.784Z,7900.00
2018-05-29T04:52:24.812Z,8604.00
2018-05-29T04:53:24.842Z,8948.00
2018-05-29T04:54:24.867Z,10420.00
2018-05-29T04:55:24.894Z,11636.00
2018-05-29T04:56:24.922Z,10452.00
2018-05-29T04:57:24.947Z,10300.00
2018-05-29T04:58:24.974Z,8700.00
2018-05-29T04:59:25.003Z,7856.00
2018-05-29T05:00:25.032Z,7920.00
2018-05-29T05:01:25.056Z,9780.00
2018-05-29T05:02:25.085Z,11400.00
2018-05-29T05:03:25.113Z,11988.00
2018-05-29T05:04:25.141Z,12328.00
2018-05-29T05:05:25.167Z,12460.00
2018-05-29T05:06:25.202Z,12772.00
2018-05-29T05:07:25.225Z,12700.00
2018-05-29T05:08:25.254Z,11992.00
2018-05-29T05:09:25.278Z,11788.00
2018-05-29T05:10:25.307Z,11860.00
2018-05-29T05:11:25.335Z,10120.00
2018-05-29T05:12:25.365Z,8064.00
2018-05-29T05:13:25.393Z,7372.00
2018-05-29T05:14:25.419Z,7316.00
2018-05-29T05:15:25.447Z,7276.00
2018-05-29T05:16:25.475Z,7192.00
2018-05-29T05:17:25.504Z,7120.00
2018-05-29T05:18:25.541Z,7028.00
2018-05-29T05:19:25.562Z,6848.00
2018-05-29T05:20:25.592Z,6696.00
2018-05-29T05:21:25.618Z,6628.00
2018-05-29T05:22:25.645Z,6592.00
2018-05-29T05:23:25.674Z,6532.00
2018-05-29T05:24:25.702Z,6476.00
2018-05-29T05:25:25.733Z,6396.00
2018-05-29T05:26:25.770Z,6396.00
2018-05-29T05:27:25.788Z,6436.00
2018-05-29T05:28:25.815Z,6424.00
2018-05-29T05:29:25.844Z,6412.00
2018-05-29T05:30:25.872Z,6352.00
2018-05-29T05:31:25.901Z,6320.00
2018-05-29T05:32:25.928Z,6412.00
2018-05-29T05:33:25.955Z,6428.00
2018-05-29T05:34:25.982Z,6520.00
2018-05-29T05:35:26.083Z,6620.00
2018-05-29T05:36:26.039Z,6720.00
2018-05-29T05:37:26.067Z,6824.00
2018-05-29T05:38:26.096Z,7012.00
2018-05-29T05:39:26.123Z,7096.00
2018-05-29T05:40:26.155Z,7200.00
2018-05-29T05:41:26.178Z,7372.00
2018-05-29T05:42:26.205Z,7424.00
2018-05-29T05:43:26.236Z,7488.00
2018-05-29T05:44:26.264Z,7584.00
2018-05-29T05:45:26.290Z,8036.00
2018-05-29T05:46:26.324Z,10904.00
2018-05-29T05:47:26.345Z,15444.00
2018-05-29T05:48:26.373Z,17904.00
2018-05-29T05:49:26.401Z,20000.00
2018-05-29T05:50:26.428Z,21120.00
2018-05-29T05:51:26.457Z,21376.00
2018-05-29T05:52:26.488Z,22336.00
2018-05-29T05:53:26.512Z,22784.00
2018-05-29T05:54:26.538Z,22048.00
2018-05-29T05:55:26.572Z,22816.00
2018-05-29T05:56:26.602Z,23584.00
2018-05-29T05:57:26.629Z,25824.00
2018-05-29T05:58:26.668Z,26336.00
2018-05-29T05:59:26.681Z,26656.00
2018-05-29T06:00:26.708Z,27904.00
2018-05-29T06:01:26.738Z,27168.00
2018-05-29T06:02:26.769Z,27168.00
2018-05-29T06:03:26.797Z,28416.00
2018-05-29T06:04:26.827Z,29632.00
2018-05-29T06:05:26.854Z,30752.00
2018-05-29T06:06:26.899Z,31584.00
2018-05-29T06:07:26.915Z,31168.00
2018-05-29T06:08:26.941Z,31008.00
2018-05-29T06:09:26.968Z,32000.00
2018-05-29T06:10:26.999Z,32512.00
2018-05-29T06:11:27.031Z,32768.00
2018-05-29T06:12:27.060Z,32608.00
2018-05-29T06:13:27.092Z,31232.00
2018-05-29T06:14:27.119Z,30560.00
2018-05-29T06:15:27.149Z,31520.00
2018-05-29T06:16:27.275Z,30752.00
2018-05-29T06:17:27.215Z,29408.00
2018-05-29T06:18:27.232Z,29024.00
2018-05-29T06:19:27.269Z,28672.00
2018-05-29T06:20:27.301Z,28448.00
2018-05-29T06:21:27.332Z,28448.00
2018-05-29T06:22:27.364Z,27360.00
2018-05-29T06:23:27.398Z,24864.00
2018-05-29T06:24:27.481Z,14388.00
2018-05-29T06:25:27.448Z,6420.00
2018-05-29T06:26:27.483Z,5916.00
2018-05-29T06:27:27.516Z,5620.00
2018-05-29T06:28:27.550Z,5344.00
2018-05-29T06:29:27.576Z,5252.00
2018-05-29T06:30:27.606Z,5508.00
2018-05-29T06:31:27.646Z,5464.00
2018-05-29T06:32:27.668Z,5088.00
2018-05-29T06:33:27.717Z,4900.00
2018-05-29T06:34:27.728Z,4860.00
2018-05-29T06:35:27.757Z,4820.00
2018-05-29T06:36:27.794Z,4796.00
2018-05-29T06:37:27.817Z,4776.00
2018-05-29T06:38:27.848Z,4728.00
2018-05-29T06:39:27.877Z,4692.00
2018-05-29T06:40:27.906Z,4648.00
2018-05-29T06:41:27.937Z,4588.00
2018-05-29T06:42:27.965Z,4544.00
2018-05-29T06:43:27.993Z,4484.00
2018-05-29T06:44:28.023Z,4408.00
2018-05-29T06:45:28.059Z,4344.00
2018-05-29T06:46:28.082Z,4320.00
2018-05-29T06:47:28.112Z,4316.00
2018-05-29T06:48:28.169Z,4308.00
2018-05-29T06:49:28.170Z,4288.00
2018-05-29T06:50:28.197Z,4280.00
2018-05-29T06:51:28.226Z,4276.00
2018-05-29T06:52:28.256Z,4276.00
2018-05-29T06:53:28.285Z,4260.00
2018-05-29T06:54:28.311Z,4264.00
2018-05-29T06:55:28.344Z,4244.00
2018-05-29T06:56:28.380Z,4232.00
2018-05-29T06:57:28.398Z,4224.00
2018-05-29T06:58:28.424Z,4220.00
2018-05-29T06:59:28.454Z,4200.00
2018-05-29T07:00:28.484Z,4180.00
2018-05-29T07:01:28.512Z,4164.00
2018-05-29T07:02:28.544Z,4144.00
2018-05-29T07:03:28.594Z,4112.00
2018-05-29T07:04:28.595Z,4092.00
2018-05-29T07:05:28.622Z,4052.00
2018-05-29T07:06:28.648Z,4040.00
2018-05-29T07:07:28.677Z,4032.00
2018-05-29T07:08:28.710Z,4012.00
2018-05-29T07:09:28.785Z,3988.00
2018-05-29T07:10:28.768Z,3976.00
2018-05-29T07:11:28.803Z,3944.00
2018-05-29T07:12:28.819Z,3932.00
2018-05-29T07:13:28.848Z,3920.00
2018-05-29T07:14:28.887Z,3916.00
2018-05-29T07:15:28.911Z,3896.00
2018-05-29T07:16:28.934Z,3868.00
2018-05-29T07:17:28.969Z,3844.00
2018-05-29T07:18:28.982Z,3828.00
2018-05-29T07:19:29.011Z,3808.00
2018-05-29T07:20:29.040Z,3788.00
2018-05-29T07:21:29.066Z,3764.00
2018-05-29T07:22:29.093Z,3740.00
2018-05-29T07:23:29.120Z,3720.00
2018-05-29T07:24:29.149Z,3704.00
2018-05-29T07:25:29.177Z,3684.00
2018-05-29T07:26:29.198Z,3692.00
2018-05-29T07:27:29.263Z,3684.00
2018-05-29T07:28:29.258Z,3660.00
2018-05-29T07:29:29.286Z,3652.00
2018-05-29T07:30:29.313Z,3652.00
2018-05-29T07:31:29.358Z,3656.00
2018-05-29T07:32:29.367Z,3656.00
2018-05-29T07:33:29.397Z,3644.00
2018-05-29T07:34:29.421Z,3636.00
2018-05-29T07:35:29.449Z,3628.00
2018-05-29T07:36:29.478Z,3620.00
2018-05-29T07:37:29.502Z,3612.00
2018-05-29T07:38:29.534Z,3596.00
2018-05-29T07:39:29.578Z,3584.00
2018-05-29T07:40:29.600Z,3572.00
2018-05-29T07:41:29.612Z,3560.00
2018-05-29T07:42:29.639Z,3664.00
2018-05-29T07:43:29.666Z,3692.00
2018-05-29T07:44:29.694Z,3676.00
2018-05-29T07:45:29.724Z,3664.00
2018-05-29T07:46:29.766Z,3528.00
2018-05-29T07:47:29.780Z,3520.00
2018-05-29T07:48:29.803Z,3532.00
2018-05-29T07:49:29.834Z,3512.00
2018-05-29T07:50:29.857Z,3484.00
2018-05-29T07:51:29.886Z,3456.00
2018-05-29T07:52:29.913Z,3432.00
2018-05-29T07:53:29.939Z,3420.00
2018-05-29T07:54:29.966Z,3408.00
2018-05-29T07:55:29.994Z,3396.00
2018-05-29T07:56:30.018Z,3388.00
2018-05-29T07:57:30.047Z,3376.00
2018-05-29T07:58:30.078Z,3364.00
2018-05-29T07:59:30.102Z,3352.00
2018-05-29T08:00:30.130Z,3336.00
2018-05-29T08:01:30.155Z,3324.00
2018-05-29T08:02:30.183Z,3312.00
2018-05-29T08:03:30.209Z,3300.00
2018-05-29T08:04:30.238Z,3288.00
2018-05-29T08:05:30.263Z,3284.00
2018-05-29T08:06:30.325Z,3272.00
2018-05-29T08:07:30.316Z,3260.00
2018-05-29T08:08:30.351Z,3256.00
2018-05-29T08:09:30.377Z,3244.00
2018-05-29T08:10:30.455Z,3228.00
2018-05-29T08:11:30.443Z,3208.00
2018-05-29T08:12:30.473Z,3184.00
2018-05-29T08:13:30.518Z,3164.00
2018-05-29T08:14:30.504Z,3156.00
2018-05-29T08:15:30.530Z,3152.00
2018-05-29T08:16:30.560Z,3144.00
2018-05-29T08:17:30.589Z,3136.00
2018-05-29T08:18:30.653Z,3120.00
2018-05-29T08:19:30.638Z,3108.00
2018-05-29T08:20:30.669Z,3100.00
2018-05-29T08:21:30.698Z,3080.00
2018-05-29T08:22:30.721Z,3056.00
2018-05-29T08:23:30.806Z,3040.00
2018-05-29T08:24:30.772Z,3024.00
2018-05-29T08:25:30.801Z,3004.00
2018-05-29T08:26:30.868Z,2988.00
2018-05-29T08:27:30.866Z,2980.00
2018-05-29T08:28:30.880Z,2964.00
2018-05-29T08:29:30.906Z,2956.00
2018-05-29T08:30:30.968Z,2948.00
2018-05-29T08:31:30.965Z,2940.00
2018-05-29T08:32:30.992Z,2924.00
2018-05-29T08:33:31.020Z,2916.00
2018-05-29T08:34:31.039Z,2908.00
2018-05-29T08:35:31.065Z,2900.00
2018-05-29T08:36:31.096Z,2888.00
2018-05-29T08:37:31.122Z,2868.00
2018-05-29T08:38:31.154Z,2856.00
2018-05-29T08:39:31.235Z,2844.00
2018-05-29T08:40:31.202Z,2828.00
2018-05-29T08:41:31.232Z,2808.00
2018-05-29T08:42:31.281Z,2788.00
2018-05-29T08:43:31.281Z,2772.00
2018-05-29T08:44:31.308Z,2756.00
2018-05-29T08:45:31.340Z,2740.00
2018-05-29T08:46:31.361Z,2728.00
2018-05-29T08:47:31.392Z,2720.00
2018-05-29T08:48:31.421Z,2712.00
2018-05-29T08:49:31.442Z,2700.00
2018-05-29T08:50:31.475Z,2684.00
2018-05-29T08:51:31.499Z,2668.00
2018-05-29T08:52:31.523Z,2656.00
2018-05-29T08:53:31.548Z,2648.00
2018-05-29T08:54:31.573Z,2640.00
2018-05-29T08:55:31.602Z,2640.00
2018-05-29T08:56:31.636Z,2620.00
2018-05-29T08:57:31.654Z,2620.00
2018-05-29T08:58:31.681Z,2608.00
2018-05-29T08:59:31.710Z,2600.00
2018-05-29T09:00:31.730Z,2592.00
2018-05-29T09:01:31.761Z,2592.00
2018-05-29T09:02:31.789Z,2576.00
2018-05-29T09:03:31.816Z,2548.00
2018-05-29T09:04:31.846Z,2544.00
2018-05-29T09:05:31.867Z,2532.00
2018-05-29T09:06:31.895Z,2524.00
2018-05-29T09:07:31.918Z,2524.00
2018-05-29T09:08:31.946Z,2516.00
2018-05-29T09:09:31.975Z,2508.00
2018-05-29T09:10:31.999Z,2504.00
2018-05-29T09:11:32.031Z,2488.00
2018-05-29T09:12:32.052Z,2480.00
2018-05-29T09:13:32.083Z,2476.00
2018-05-29T09:14:32.106Z,2476.00
2018-05-29T09:15:32.134Z,2476.00
2018-05-29T09:16:32.160Z,2476.00
2018-05-29T09:17:32.186Z,2476.00
2018-05-29T09:18:32.220Z,2472.00
2018-05-29T09:19:32.241Z,2464.00
2018-05-29T09:20:32.287Z,2452.00
2018-05-29T09:21:32.290Z,2444.00
2018-05-29T09:22:32.328Z,2432.00
2018-05-29T09:23:32.344Z,2412.00
2018-05-29T09:24:33.115Z,2400.00
2018-05-29T09:25:32.405Z,2392.00
2018-05-29T09:26:32.425Z,2392.00
2018-05-29T09:27:32.450Z,2376.00
2018-05-29T09:28:32.483Z,2372.00
2018-05-29T09:29:32.566Z,2352.00
2018-05-29T09:30:32.528Z,2336.00
2018-05-29T09:31:32.556Z,2308.00
2018-05-29T09:32:32.588Z,2300.00
2018-05-29T09:33:32.611Z,2288.00
2018-05-29T09:34:32.636Z,2276.00
2018-05-29T09:35:32.720Z,2272.00
2018-05-29T09:36:32.690Z,2272.00
2018-05-29T09:37:32.784Z,2272.00
2018-05-29T09:38:32.743Z,2260.00
2018-05-29T09:39:32.766Z,2248.00
2018-05-29T09:40:32.803Z,2248.00
2018-05-29T09:41:32.843Z,2252.00
2018-05-29T09:42:32.846Z,2244.00
2018-05-29T09:43:32.872Z,2228.00
2018-05-29T09:44:32.899Z,2220.00
2018-05-29T09:45:32.924Z,2224.00
2018-05-29T09:46:32.958Z,2220.00
2018-05-29T09:47:32.979Z,2212.00
2018-05-29T09:48:33.004Z,2200.00
2018-05-29T09:49:33.031Z,2192.00
2018-05-29T09:50:33.061Z,2192.00
2018-05-29T09:51:33.078Z,2196.00
2018-05-29T09:52:33.115Z,2196.00
2018-05-29T09:53:33.135Z,2196.00
2018-05-29T09:54:33.171Z,2180.00
2018-05-29T09:55:33.194Z,2176.00
2018-05-29T09:56:33.214Z,2160.00
2018-05-29T09:57:33.240Z,2148.00
2018-05-29T09:58:33.264Z,2160.00
2018-05-29T09:59:33.291Z,2156.00
2018-05-29T10:00:33.320Z,2144.00
2018-05-29T10:01:33.346Z,2160.00
2018-05-29T10:02:33.372Z,2160.00
2018-05-29T10:03:33.400Z,2192.00
2018-05-29T10:04:33.424Z,2200.00
2018-05-29T10:05:33.458Z,2200.00
2018-05-29T10:06:33.485Z,2200.00
2018-05-29T10:07:33.502Z,2188.00
2018-05-29T10:08:33.537Z,2172.00
2018-05-29T10:09:33.553Z,2192.00
2018-05-29T10:10:33.619Z,2212.00
2018-05-29T10:11:33.606Z,2236.00
2018-05-29T10:12:33.631Z,2252.00
2018-05-29T10:13:33.659Z,2224.00
2018-05-29T10:14:33.688Z,2188.00
2018-05-29T10:15:33.715Z,2200.00
2018-05-29T10:16:33.747Z,2176.00
2018-05-29T10:17:33.815Z,2176.00
2018-05-29T10:18:33.798Z,2196.00
2018-05-29T10:19:33.824Z,2180.00
2018-05-29T10:20:33.841Z,2172.00
2018-05-29T10:21:33.873Z,2172.00
2018-05-29T10:22:33.910Z,2148.00
2018-05-29T10:23:33.920Z,2108.00
2018-05-29T10:24:33.988Z,2152.00
2018-05-29T10:25:33.982Z,2180.00
2018-05-29T10:26:34.002Z,2132.00
2018-05-29T10:27:34.024Z,2096.00
2018-05-29T10:28:34.042Z,2136.00
2018-05-29T10:29:34.113Z,2124.00
2018-05-29T10:30:34.105Z,2032.00
2018-05-29T10:31:34.151Z,1760.00
2018-05-29T10:32:34.172Z,1840.00
2018-05-29T10:33:34.186Z,1744.00
2018-05-29T10:34:34.426Z,1720.00
2018-05-29T10:35:34.231Z,1712.00
2018-05-29T10:36:34.256Z,1740.00
2018-05-29T10:37:34.314Z,1944.00
2018-05-29T10:38:34.514Z,2028.00
2018-05-29T10:39:34.996Z,2040.00
2018-05-29T10:40:34.636Z,1896.00
2018-05-29T10:41:34.725Z,1660.00
2018-05-29T10:42:34.448Z,1916.00
2018-05-29T10:43:35.534Z,2148.00
2018-05-29T10:44:34.697Z,2244.00
2018-05-29T10:45:35.039Z,2208.00
2018-05-29T10:46:34.585Z,2140.00
2018-05-29T10:47:35.028Z,1908.00
2018-05-29T10:48:34.589Z,1964.00
2018-05-29T10:49:34.598Z,2048.00
2018-05-29T10:50:34.621Z,2100.00
2018-05-29T10:51:34.644Z,2120.00
2018-05-29T10:52:34.770Z,2036.00
2018-05-29T10:53:34.702Z,2124.00
2018-05-29T10:54:34.723Z,2104.00
2018-05-29T10:55:34.750Z,2100.00
2018-05-29T10:56:34.780Z,2104.00
2018-05-29T10:57:34.834Z,2232.00
2018-05-29T10:58:34.832Z,1848.00
2018-05-29T10:59:34.861Z,1788.00
2018-05-29T11:00:34.896Z,2040.00
2018-05-29T11:01:34.911Z,1816.00
2018-05-29T11:02:34.930Z,1884.00
2018-05-29T11:03:34.959Z,1804.00
2018-05-29T11:04:34.987Z,1908.00
2018-05-29T11:05:35.008Z,2000.00
2018-05-29T11:06:35.037Z,1952.00
2018-05-29T11:07:35.059Z,1988.00
2018-05-29T11:08:35.086Z,1928.00
2018-05-29T11:09:35.115Z,2152.00
2018-05-29T11:10:35.139Z,2228.00
2018-05-29T11:11:35.171Z,2264.00
2018-05-29T11:12:35.188Z,2000.00
2018-05-29T11:13:35.217Z,2252.00
2018-05-29T11:14:35.245Z,2188.00
2018-05-29T11:15:35.266Z,2180.00
2018-05-29T11:16:35.299Z,2108.00
2018-05-29T11:17:35.326Z,2260.00
2018-05-29T11:18:35.346Z,2316.00
2018-05-29T11:19:35.378Z,2336.00
2018-05-29T11:20:35.396Z,2332.00
2018-05-29T11:21:35.450Z,2288.00
2018-05-29T11:22:35.445Z,2012.00
2018-05-29T11:23:35.478Z,1984.00
2018-05-29T11:24:35.501Z,1980.00
2018-05-29T11:25:35.537Z,1960.00
2018-05-29T11:26:35.551Z,1952.00
2018-05-29T11:27:35.577Z,2280.00
2018-05-29T11:28:35.602Z,2272.00
2018-05-29T11:29:35.631Z,2256.00
2018-05-29T11:30:35.655Z,2136.00
2018-05-29T11:31:35.680Z,2088.00
2018-05-29T11:32:35.715Z,2108.00
2018-05-29T11:33:35.736Z,1920.00
2018-05-29T11:34:35.759Z,2204.00
2018-05-29T11:35:35.795Z,2220.00
2018-05-29T11:36:35.808Z,2164.00
2018-05-29T11:37:35.838Z,2080.00
2018-05-29T11:38:35.864Z,2008.00
2018-05-29T11:39:35.886Z,1712.00
2018-05-29T11:40:35.915Z,1652.00
2018-05-29T11:41:35.938Z,1600.00
2018-05-29T11:42:35.965Z,1700.00
2018-05-29T11:43:36.017Z,2076.00
2018-05-29T11:44:36.017Z,2164.00
2018-05-29T11:45:36.044Z,2212.00
2018-05-29T11:46:36.072Z,2204.00
2018-05-29T11:47:36.099Z,1892.00
2018-05-29T11:48:36.120Z,1804.00
2018-05-29T11:49:36.149Z,1756.00
2018-05-29T11:50:36.171Z,2052.00
2018-05-29T11:51:36.200Z,2052.00
2018-05-29T11:52:36.228Z,2060.00
2018-05-29T11:53:36.252Z,1720.00
2018-05-29T11:54:36.280Z,1744.00
2018-05-29T11:55:36.304Z,1704.00
2018-05-29T11:56:36.328Z,2116.00
2018-05-29T11:57:36.373Z,2288.00
2018-05-29T11:58:36.389Z,2420.00
2018-05-29T11:59:36.406Z,2420.00
2018-05-29T12:00:36.458Z,2424.00
2018-05-29T12:01:36.458Z,2368.00
2018-05-29T12:02:36.483Z,2232.00
2018-05-29T12:03:36.536Z,1808.00
2018-05-29T12:04:36.540Z,1768.00
2018-05-29T12:05:36.561Z,1800.00
2018-05-29T12:06:36.587Z,1812.00
2018-05-29T12:07:36.623Z,1812.00
2018-05-29T12:08:36.653Z,1816.00
2018-05-29T12:09:36.665Z,2240.00
2018-05-29T12:10:36.703Z,2180.00
2018-05-29T12:11:36.755Z,2372.00
2018-05-29T12:12:36.743Z,2112.00
2018-05-29T12:13:36.795Z,2092.00
2018-05-29T12:14:36.805Z,2028.00
2018-05-29T12:15:36.831Z,2360.00
2018-05-29T12:16:36.847Z,2268.00
2018-05-29T12:17:36.872Z,2192.00
2018-05-29T12:18:36.898Z,2168.00
2018-05-29T12:19:36.927Z,2212.00
2018-05-29T12:20:36.949Z,1944.00
2018-05-29T12:21:36.977Z,1916.00
2018-05-29T12:22:37.042Z,1892.00